Main page
METAR-TAF:

METAR-TAF

Airports :

Vigo, Spain

Vigo–Peinador Airport

latitude: 42-13N, longitude: 008-38W, elevation: 264 m

Current weather observation

The report was made 28 minutes ago, at 23:00 UTC
Wind 2 kt from variable directions
Temperature 16°C
Humidity 82%
Pressure 1019 hPa
Visibility 10 km or more
no clouds below 1500 m and no cumulonimbus

METAR: LEVX 222300Z VRB02KT CAVOK 16/13 Q1019 NOSIG

Time: 01:28 (23:28 UTC)

Forecast

The report was made 6 hours and 28 minutes ago, at 17:00 UTC
Forecast valid from 22 at 18 UTC to 23 at 18 UTC
Wind 10 kt from the West/Northwest
Visibility 10 km or more
no clouds below 1500 m and no cumulonimbus
Becoming
from 22 at 18 UTC to 22 at 20 UTC
Wind 5 kt from variable directions

TAF: LEVX 221700Z 2218/2318 30010KT CAVOK TX30/2314Z TN13/2306Z BECMG 2218/2220 VRB05KT

Weather observations and forecasts of more than 4000 airports (METAR and TAF reports).

The available stations are represented by yellow and red dots on the map.

Hover mouse over dot to see the name of the station.

Then click to see weather observations and forecasts.

To change the map : click on the green buttons with a black cross to zoom in, on the green button with a dash to zoom out, or on the green arrows for adjacent maps.


METAR-TAF: